createdAt,value
2017-08-26T00:01:07.634Z,19.10
2017-08-26T00:03:35.196Z,19.10
2017-08-26T00:06:02.753Z,19.00
2017-08-26T00:08:30.241Z,19.00
2017-08-26T00:10:57.863Z,18.90
2017-08-26T00:13:25.504Z,18.80
2017-08-26T00:15:53.011Z,18.80
2017-08-26T00:18:20.583Z,18.70
2017-08-26T00:20:48.067Z,18.70
2017-08-26T00:23:26.785Z,18.60
2017-08-26T00:25:54.398Z,18.60
2017-08-26T00:28:21.978Z,18.60
2017-08-26T00:30:49.746Z,18.60
2017-08-26T00:33:17.310Z,18.60
2017-08-26T00:35:44.807Z,18.60
2017-08-26T00:38:12.328Z,18.70
2017-08-26T00:40:39.886Z,18.70
2017-08-26T00:43:07.805Z,18.60
2017-08-26T00:45:35.354Z,18.60
2017-08-26T00:48:03.083Z,18.50
2017-08-26T00:50:30.643Z,18.50
2017-08-26T00:52:58.099Z,18.40
2017-08-26T00:55:25.754Z,18.30
2017-08-26T00:57:54.498Z,18.30
2017-08-26T01:05:57.609Z,18.10
2017-08-26T01:08:25.196Z,18.10
2017-08-26T01:10:59.769Z,18.10
2017-08-26T01:13:27.227Z,18.20
2017-08-26T01:15:54.679Z,18.20
2017-08-26T01:18:22.204Z,18.10
2017-08-26T01:20:49.683Z,18.20
2017-08-26T01:23:17.280Z,18.30
2017-08-26T01:25:44.824Z,18.40
2017-08-26T01:28:12.388Z,18.50
2017-08-26T01:30:39.837Z,18.60
2017-08-26T01:33:07.298Z,18.70
2017-08-26T01:35:34.755Z,18.80
2017-08-26T01:38:02.320Z,18.90
2017-08-26T01:40:29.783Z,19.00
2017-08-26T01:42:57.312Z,19.10
2017-08-26T01:45:24.863Z,19.20
2017-08-26T01:47:52.353Z,19.20
2017-08-26T01:50:19.798Z,19.20
2017-08-26T01:52:47.256Z,19.20
2017-08-26T01:55:14.732Z,19.20
2017-08-26T01:57:42.211Z,19.20
2017-08-26T02:00:09.656Z,19.20
2017-08-26T02:02:37.129Z,19.20
2017-08-26T02:05:04.665Z,19.20
2017-08-26T02:07:32.144Z,19.20
2017-08-26T02:09:59.625Z,19.10
2017-08-26T02:12:27.122Z,19.10
2017-08-26T02:14:54.569Z,19.20
2017-08-26T02:17:22.051Z,19.20
2017-08-26T02:19:49.540Z,19.10
2017-08-26T02:22:17.023Z,19.10
2017-08-26T02:24:44.509Z,19.20
2017-08-26T02:27:11.960Z,19.20
2017-08-26T02:29:39.403Z,19.30
2017-08-26T02:32:06.976Z,19.30
2017-08-26T02:34:34.417Z,19.40
2017-08-26T02:37:01.889Z,19.40
2017-08-26T02:39:29.339Z,19.40
2017-08-26T02:41:56.840Z,19.40
2017-08-26T02:44:24.275Z,19.40
2017-08-26T02:46:51.796Z,19.30
2017-08-26T02:49:19.291Z,19.20
2017-08-26T02:51:46.757Z,19.10
2017-08-26T02:54:14.237Z,19.10
2017-08-26T02:56:41.671Z,19.00
2017-08-26T02:59:09.119Z,19.00
2017-08-26T03:01:36.642Z,18.90
2017-08-26T03:04:04.082Z,18.90
2017-08-26T03:06:31.556Z,18.80
2017-08-26T03:08:59.003Z,18.70
2017-08-26T03:11:26.444Z,18.70
2017-08-26T03:13:53.890Z,18.70
2017-08-26T03:16:21.331Z,18.60
2017-08-26T03:18:49.495Z,18.60
2017-08-26T03:21:16.936Z,18.50
2017-08-26T03:23:44.392Z,18.50
2017-08-26T03:26:11.828Z,18.40
2017-08-26T03:28:39.274Z,18.40
2017-08-26T03:31:06.714Z,18.30
2017-08-26T03:33:34.165Z,18.20
2017-08-26T03:36:01.611Z,18.10
2017-08-26T03:38:29.056Z,18.00
2017-08-26T03:40:56.492Z,17.90
2017-08-26T03:43:23.942Z,17.80
2017-08-26T03:45:51.384Z,17.70
2017-08-26T03:48:18.827Z,17.60
2017-08-26T03:50:46.270Z,17.50
2017-08-26T03:53:13.723Z,17.50
2017-08-26T03:55:41.158Z,17.40
2017-08-26T03:58:08.607Z,17.40
2017-08-26T04:00:36.256Z,17.40
2017-08-26T04:03:06.067Z,17.30
2017-08-26T04:05:46.187Z,17.30
2017-08-26T04:08:25.964Z,17.20
2017-08-26T04:10:53.524Z,17.20
2017-08-26T04:13:31.894Z,17.20
2017-08-26T04:15:59.728Z,17.20
2017-08-26T04:18:27.773Z,17.30
2017-08-26T04:20:57.197Z,17.30
2017-08-26T04:23:41.849Z,17.30
2017-08-26T04:26:13.621Z,17.30
2017-08-26T04:29:00.106Z,17.20
2017-08-26T04:31:29.627Z,17.20
2017-08-26T04:33:57.778Z,17.20
2017-08-26T04:36:26.796Z,17.20
2017-08-26T04:38:54.570Z,17.20
2017-08-26T04:41:23.556Z,17.20
2017-08-26T04:43:52.845Z,17.20
2017-08-26T04:46:21.468Z,17.20
2017-08-26T04:48:50.253Z,17.20
2017-08-26T04:51:17.841Z,17.30
2017-08-26T04:59:01.605Z,17.30
2017-08-26T05:01:29.052Z,17.50
2017-08-26T05:03:56.496Z,17.50
2017-08-26T05:06:23.940Z,17.60
2017-08-26T05:08:51.375Z,17.70
2017-08-26T05:11:18.831Z,17.70
2017-08-26T05:13:46.269Z,17.80
2017-08-26T05:16:13.708Z,17.80
2017-08-26T05:18:41.140Z,17.80
2017-08-26T05:21:08.584Z,17.90
2017-08-26T05:23:36.023Z,18.00
2017-08-26T05:26:03.472Z,18.00
2017-08-26T05:28:30.917Z,18.20
2017-08-26T05:30:58.363Z,18.20
2017-08-26T05:33:25.808Z,18.30
2017-08-26T05:35:53.252Z,18.40
2017-08-26T05:38:20.700Z,18.50
2017-08-26T05:40:48.144Z,18.60
2017-08-26T05:43:15.596Z,18.70
2017-08-26T05:45:43.043Z,18.80
2017-08-26T05:48:10.479Z,18.90
2017-08-26T05:50:37.924Z,19.10
2017-08-26T05:53:05.366Z,19.20
2017-08-26T05:55:32.799Z,19.30
2017-08-26T05:58:00.243Z,19.50
2017-08-26T06:00:27.683Z,19.60
2017-08-26T06:02:55.119Z,19.70
2017-08-26T06:05:22.558Z,19.80
2017-08-26T06:07:50.003Z,20.00
2017-08-26T06:10:17.483Z,20.30
2017-08-26T06:12:44.919Z,20.60
2017-08-26T06:15:12.356Z,20.70
2017-08-26T06:17:39.799Z,20.80
2017-08-26T06:20:07.233Z,21.10
2017-08-26T06:22:34.678Z,21.40
2017-08-26T06:25:02.110Z,22.20
2017-08-26T06:27:29.560Z,23.30
2017-08-26T06:29:56.999Z,24.50
2017-08-26T06:32:24.443Z,25.20
2017-08-26T06:34:51.883Z,26.00
2017-08-26T06:37:19.318Z,26.60
2017-08-26T06:39:46.756Z,27.20
2017-08-26T06:42:14.191Z,27.70
2017-08-26T06:44:41.618Z,28.10
2017-08-26T06:47:09.057Z,28.50
2017-08-26T06:49:36.497Z,28.60
2017-08-26T06:52:03.932Z,28.60
2017-08-26T06:54:31.369Z,28.60
2017-08-26T06:56:58.803Z,28.60
2017-08-26T06:59:26.248Z,28.70
2017-08-26T07:01:53.683Z,28.80
2017-08-26T07:04:21.116Z,28.90
2017-08-26T07:06:48.557Z,28.90
2017-08-26T07:09:16.003Z,28.90
2017-08-26T07:11:43.435Z,28.90
2017-08-26T07:14:10.908Z,29.00
2017-08-26T07:16:38.348Z,29.10
2017-08-26T07:19:05.788Z,29.30
2017-08-26T07:21:33.228Z,29.20
2017-08-26T07:24:00.689Z,29.40
2017-08-26T07:26:28.156Z,29.40
2017-08-26T07:28:55.595Z,29.50
2017-08-26T07:31:23.026Z,29.40
2017-08-26T07:33:50.471Z,29.80
2017-08-26T07:36:17.906Z,29.90
2017-08-26T07:38:45.342Z,30.00
2017-08-26T07:41:12.772Z,30.00
2017-08-26T07:43:40.219Z,30.10
2017-08-26T07:46:07.650Z,30.10
2017-08-26T07:48:35.093Z,30.10
2017-08-26T07:51:02.523Z,30.00
2017-08-26T07:53:29.964Z,30.20
2017-08-26T07:55:57.410Z,30.20
2017-08-26T07:58:24.844Z,30.30
2017-08-26T08:00:52.283Z,30.40
2017-08-26T08:03:19.717Z,30.60
2017-08-26T08:05:47.165Z,30.60
2017-08-26T08:08:14.604Z,30.70
2017-08-26T08:10:42.047Z,30.80
2017-08-26T08:13:09.481Z,31.00
2017-08-26T08:15:36.919Z,31.00
2017-08-26T08:18:04.355Z,31.00
2017-08-26T08:20:31.807Z,31.00
2017-08-26T08:22:59.238Z,30.90
2017-08-26T08:25:26.671Z,30.70
2017-08-26T08:27:54.103Z,30.30
2017-08-26T08:30:21.542Z,30.10
2017-08-26T08:32:48.980Z,29.60
2017-08-26T08:35:16.418Z,29.40
2017-08-26T08:37:43.868Z,28.90
2017-08-26T08:40:11.309Z,28.50
2017-08-26T08:42:38.743Z,28.30
2017-08-26T08:45:06.184Z,28.20
2017-08-26T08:47:33.624Z,28.20
2017-08-26T08:50:01.075Z,28.10
2017-08-26T08:52:28.506Z,28.10
2017-08-26T08:54:55.947Z,28.00
2017-08-26T08:57:23.395Z,27.90
2017-08-26T08:59:50.833Z,27.90
2017-08-26T09:02:18.268Z,28.00
2017-08-26T09:04:45.706Z,28.10
2017-08-26T09:07:13.142Z,28.20
2017-08-26T09:09:40.585Z,28.40
2017-08-26T09:12:08.017Z,28.40
2017-08-26T09:17:26.069Z,28.30
2017-08-26T09:19:53.496Z,28.50
2017-08-26T09:22:20.930Z,28.50
2017-08-26T09:24:48.363Z,28.50
2017-08-26T09:27:15.811Z,28.70
2017-08-26T09:29:43.250Z,28.70
2017-08-26T09:32:10.687Z,28.90
2017-08-26T09:34:38.119Z,29.10
2017-08-26T09:37:05.560Z,29.20
2017-08-26T09:39:32.993Z,29.10
2017-08-26T09:42:00.435Z,29.10
2017-08-26T09:44:27.869Z,29.10
2017-08-26T09:46:55.309Z,29.10
2017-08-26T09:49:22.743Z,29.20
2017-08-26T09:51:50.180Z,29.10
2017-08-26T09:54:17.617Z,29.10
2017-08-26T09:56:45.055Z,29.20
2017-08-26T09:59:12.490Z,29.10
2017-08-26T10:01:39.948Z,29.10
2017-08-26T10:04:07.382Z,29.20
2017-08-26T10:06:34.844Z,29.40
2017-08-26T10:09:02.290Z,29.40
2017-08-26T10:11:29.725Z,29.50
2017-08-26T10:13:57.167Z,29.50
2017-08-26T10:16:24.606Z,29.60
2017-08-26T10:18:52.056Z,29.70
2017-08-26T10:21:19.490Z,29.80
2017-08-26T10:23:46.918Z,29.80
2017-08-26T10:26:14.357Z,29.90
2017-08-26T10:28:41.791Z,30.00
2017-08-26T10:31:09.222Z,30.00
2017-08-26T10:33:36.674Z,30.10
2017-08-26T10:36:04.103Z,29.90
2017-08-26T10:38:31.542Z,29.90
2017-08-26T10:40:59.000Z,29.90
2017-08-26T10:43:26.423Z,29.90
2017-08-26T10:45:53.884Z,29.90
2017-08-26T10:48:21.305Z,29.80
2017-08-26T10:50:48.735Z,29.50
2017-08-26T10:53:16.170Z,29.40
2017-08-26T10:55:43.612Z,29.50
2017-08-26T10:58:11.055Z,29.40
2017-08-26T11:00:38.483Z,29.50
2017-08-26T11:03:05.920Z,29.60
2017-08-26T11:05:33.355Z,29.80
2017-08-26T11:08:00.817Z,29.90
2017-08-26T11:10:28.248Z,30.20
2017-08-26T11:12:55.685Z,30.30
2017-08-26T11:15:23.118Z,30.40
2017-08-26T11:17:50.555Z,30.60
2017-08-26T11:20:18.004Z,30.50
2017-08-26T11:22:45.434Z,30.50
2017-08-26T11:25:12.875Z,30.50
2017-08-26T11:27:40.304Z,30.50
2017-08-26T11:30:07.753Z,30.50
2017-08-26T11:32:35.175Z,30.50
2017-08-26T11:35:02.611Z,30.40
2017-08-26T11:37:30.051Z,30.20
2017-08-26T11:39:57.488Z,30.20
2017-08-26T11:42:24.924Z,30.10
2017-08-26T11:44:52.364Z,30.20
2017-08-26T11:47:19.804Z,30.20
2017-08-26T11:49:47.247Z,30.40
2017-08-26T11:52:14.682Z,30.50
2017-08-26T11:54:42.119Z,30.60
2017-08-26T11:57:09.556Z,30.60
2017-08-26T11:59:36.990Z,30.70
2017-08-26T12:02:04.427Z,30.70
2017-08-26T12:04:31.860Z,30.70
2017-08-26T12:06:59.298Z,30.70
2017-08-26T12:09:26.755Z,30.70
2017-08-26T12:11:54.188Z,30.70
2017-08-26T12:14:21.620Z,30.70
2017-08-26T12:16:49.060Z,30.70
2017-08-26T12:19:16.504Z,30.70
2017-08-26T12:21:43.942Z,30.60
2017-08-26T12:24:11.418Z,30.70
2017-08-26T12:26:38.876Z,30.80
2017-08-26T12:29:06.343Z,30.80
2017-08-26T12:31:33.779Z,30.80
2017-08-26T12:34:01.238Z,30.70
2017-08-26T12:36:28.670Z,30.70
2017-08-26T12:38:56.129Z,30.80
2017-08-26T12:41:23.568Z,31.00
2017-08-26T12:43:51.007Z,31.10
2017-08-26T12:46:18.449Z,31.30
2017-08-26T12:48:45.894Z,31.30
2017-08-26T12:51:13.366Z,31.30
2017-08-26T12:53:40.790Z,31.40
2017-08-26T12:56:08.226Z,31.50
2017-08-26T12:58:35.671Z,31.50
2017-08-26T13:01:03.150Z,31.70
2017-08-26T13:03:30.575Z,31.70
2017-08-26T13:05:58.008Z,31.80
2017-08-26T13:08:25.448Z,31.70
2017-08-26T13:10:52.880Z,31.70
2017-08-26T13:13:20.314Z,31.80
2017-08-26T13:15:47.756Z,31.90
2017-08-26T13:18:15.199Z,31.60
2017-08-26T13:20:42.633Z,31.50
2017-08-26T13:23:10.073Z,31.50
2017-08-26T13:25:37.511Z,31.70
2017-08-26T13:28:04.951Z,31.70
2017-08-26T13:30:32.382Z,31.70
2017-08-26T13:32:59.825Z,31.70
2017-08-26T13:35:27.259Z,31.70
2017-08-26T13:37:54.701Z,31.50
2017-08-26T13:40:22.134Z,31.00
2017-08-26T13:42:49.570Z,30.90
2017-08-26T13:45:17.009Z,30.90
2017-08-26T13:47:44.450Z,30.80
2017-08-26T13:50:11.883Z,30.90
2017-08-26T13:52:39.330Z,30.90
2017-08-26T13:55:06.768Z,30.90
2017-08-26T13:57:34.212Z,31.00
2017-08-26T14:00:01.656Z,31.00
2017-08-26T14:02:29.116Z,31.00
2017-08-26T14:04:56.547Z,31.00
2017-08-26T14:07:23.982Z,30.80
2017-08-26T14:09:51.427Z,30.80
2017-08-26T14:12:18.871Z,30.90
2017-08-26T14:14:46.306Z,31.00
2017-08-26T14:17:13.742Z,31.00
2017-08-26T14:19:41.183Z,30.90
2017-08-26T14:22:08.619Z,30.80
2017-08-26T14:24:36.059Z,31.00
2017-08-26T14:27:03.496Z,30.90
2017-08-26T14:29:30.938Z,30.90
2017-08-26T14:31:58.372Z,30.80
2017-08-26T14:34:25.807Z,30.70
2017-08-26T14:36:53.239Z,30.50
2017-08-26T14:39:20.693Z,30.20
2017-08-26T14:41:48.132Z,30.20
2017-08-26T14:44:15.558Z,30.20
2017-08-26T14:46:42.999Z,30.30
2017-08-26T14:49:10.444Z,30.40
2017-08-26T14:51:37.877Z,30.70
2017-08-26T14:54:05.313Z,30.80
2017-08-26T14:56:32.755Z,30.70
2017-08-26T14:59:00.200Z,30.70
2017-08-26T15:01:27.639Z,30.80
2017-08-26T15:03:55.087Z,30.70
2017-08-26T15:06:22.509Z,30.60
2017-08-26T15:08:49.952Z,30.50
2017-08-26T15:11:17.406Z,30.50
2017-08-26T15:13:44.849Z,30.50
2017-08-26T15:16:12.284Z,30.40
2017-08-26T15:18:39.722Z,30.50
2017-08-26T15:21:07.156Z,30.60
2017-08-26T15:23:34.603Z,30.80
2017-08-26T15:26:02.047Z,31.10
2017-08-26T15:28:29.483Z,31.20
2017-08-26T15:30:56.929Z,31.10
2017-08-26T15:33:24.358Z,31.10
2017-08-26T15:35:51.802Z,31.20
2017-08-26T15:38:19.241Z,31.00
2017-08-26T15:40:46.697Z,30.90
2017-08-26T15:43:14.120Z,30.80
2017-08-26T15:45:41.562Z,30.80
2017-08-26T15:48:09.005Z,30.70
2017-08-26T15:50:36.444Z,30.80
2017-08-26T15:53:03.879Z,30.70
2017-08-26T15:55:31.324Z,30.60
2017-08-26T15:57:58.762Z,30.50
2017-08-26T16:00:26.194Z,30.60
2017-08-26T16:02:53.628Z,30.70
2017-08-26T16:05:21.055Z,30.70
2017-08-26T16:07:48.499Z,30.70
2017-08-26T16:10:15.928Z,30.50
2017-08-26T16:12:43.368Z,30.40
2017-08-26T16:15:10.804Z,30.20
2017-08-26T16:17:38.235Z,30.20
2017-08-26T16:20:05.673Z,30.10
2017-08-26T16:22:33.114Z,30.20
2017-08-26T16:25:00.549Z,30.10
2017-08-26T16:27:27.990Z,30.10
2017-08-26T16:29:55.424Z,30.00
2017-08-26T16:32:22.863Z,29.80
2017-08-26T16:34:50.302Z,29.70
2017-08-26T16:37:17.734Z,29.50
2017-08-26T16:39:45.165Z,29.40
2017-08-26T16:42:12.611Z,29.30
2017-08-26T16:44:40.039Z,29.00
2017-08-26T16:47:07.491Z,28.90
2017-08-26T16:49:34.920Z,28.70
2017-08-26T16:52:02.360Z,28.50
2017-08-26T16:54:29.804Z,28.40
2017-08-26T16:56:57.269Z,28.20
2017-08-26T16:59:24.709Z,28.00
2017-08-26T17:01:52.156Z,27.90
2017-08-26T17:04:19.663Z,27.80
2017-08-26T17:06:47.102Z,27.70
2017-08-26T17:09:14.569Z,27.50
2017-08-26T17:11:42.086Z,27.40
2017-08-26T17:14:09.558Z,27.30
2017-08-26T17:16:37.003Z,27.30
2017-08-26T17:19:04.480Z,27.20
2017-08-26T17:21:31.937Z,27.10
2017-08-26T17:23:59.387Z,27.00
2017-08-26T17:26:26.836Z,26.90
2017-08-26T17:28:54.341Z,26.80
2017-08-26T17:31:21.779Z,26.80
2017-08-26T17:33:49.261Z,26.70
2017-08-26T17:36:16.722Z,26.60
2017-08-26T17:38:44.250Z,26.40
2017-08-26T17:41:11.715Z,26.30
2017-08-26T17:43:39.144Z,26.20
2017-08-26T17:46:06.592Z,26.00
2017-08-26T17:48:34.068Z,25.90
2017-08-26T17:51:01.495Z,25.70
2017-08-26T17:53:29.022Z,25.60
2017-08-26T17:55:56.480Z,25.40
2017-08-26T17:58:23.955Z,25.30
2017-08-26T18:00:51.449Z,25.20
2017-08-26T18:03:18.896Z,25.10
2017-08-26T18:05:46.402Z,25.00
2017-08-26T18:08:13.903Z,24.90
2017-08-26T18:10:41.347Z,24.80
2017-08-26T18:13:08.844Z,24.70
2017-08-26T18:15:36.485Z,24.50
2017-08-26T18:18:03.989Z,24.40
2017-08-26T18:20:31.455Z,24.30
2017-08-26T18:22:59.063Z,24.20
2017-08-26T18:25:26.520Z,24.10
2017-08-26T18:27:53.973Z,24.00
2017-08-26T18:30:21.436Z,23.90
2017-08-26T18:32:48.899Z,23.80
2017-08-26T18:35:16.392Z,23.90
2017-08-26T18:37:43.819Z,23.80
2017-08-26T18:40:11.303Z,23.70
2017-08-26T18:42:38.759Z,23.70
2017-08-26T18:45:06.198Z,23.60
2017-08-26T18:47:33.650Z,23.50
2017-08-26T18:50:01.095Z,23.40
2017-08-26T18:52:28.543Z,23.40
2017-08-26T18:54:56.214Z,23.30
2017-08-26T18:57:23.676Z,23.30
2017-08-26T18:59:51.132Z,23.20
2017-08-26T19:02:24.091Z,23.10
2017-08-26T19:05:05.561Z,23.00
2017-08-26T19:07:33.309Z,23.00
2017-08-26T19:10:01.563Z,22.90
2017-08-26T19:12:30.264Z,22.80
2017-08-26T19:15:01.795Z,22.80
2017-08-26T19:23:54.367Z,22.60
2017-08-26T19:26:22.230Z,22.40
2017-08-26T19:28:54.320Z,22.40
2017-08-26T19:34:04.261Z,22.30
2017-08-26T19:36:31.722Z,22.30
2017-08-26T19:38:59.164Z,22.20
2017-08-26T19:41:26.620Z,22.20
2017-08-26T19:43:54.061Z,22.20
2017-08-26T19:46:21.507Z,22.20
2017-08-26T19:48:49.627Z,22.10
2017-08-26T19:51:17.083Z,22.20
2017-08-26T19:53:44.531Z,22.20
2017-08-26T19:56:11.987Z,22.20
2017-08-26T19:58:39.430Z,22.10
2017-08-26T20:01:06.890Z,22.00
2017-08-26T20:03:34.323Z,21.80
2017-08-26T20:06:01.764Z,21.70
2017-08-26T20:08:29.215Z,21.60
2017-08-26T20:10:56.660Z,21.50
2017-08-26T20:13:24.141Z,21.40
2017-08-26T20:15:51.577Z,21.30
2017-08-26T20:18:19.026Z,21.30
2017-08-26T20:20:46.472Z,21.20
2017-08-26T20:23:13.923Z,21.20
2017-08-26T20:25:41.384Z,21.10
2017-08-26T20:28:08.842Z,21.20
2017-08-26T20:30:36.313Z,21.20
2017-08-26T20:33:03.789Z,21.10
2017-08-26T20:35:31.204Z,21.10
2017-08-26T20:37:58.676Z,21.10
2017-08-26T20:40:26.137Z,21.00
2017-08-26T20:42:53.571Z,21.00
2017-08-26T20:45:21.068Z,21.00
2017-08-26T20:47:48.520Z,21.00
2017-08-26T20:50:15.972Z,21.00
2017-08-26T20:52:43.436Z,20.90
2017-08-26T20:55:10.896Z,20.90
2017-08-26T20:57:38.694Z,20.80
2017-08-26T21:00:06.272Z,20.70
2017-08-26T21:02:33.784Z,20.70
2017-08-26T21:05:01.332Z,20.60
2017-08-26T21:07:28.883Z,20.50
2017-08-26T21:09:56.395Z,20.40
2017-08-26T21:12:23.985Z,20.40
2017-08-26T21:14:51.507Z,20.40
2017-08-26T21:17:19.026Z,20.40
2017-08-26T21:19:46.481Z,20.50
2017-08-26T21:22:14.767Z,20.50
2017-08-26T21:24:42.260Z,20.50
2017-08-26T21:27:09.759Z,20.60
2017-08-26T21:29:37.245Z,20.70
2017-08-26T21:32:04.729Z,20.80
2017-08-26T21:34:32.165Z,20.80
2017-08-26T21:36:59.673Z,20.90
2017-08-26T21:39:27.238Z,21.00
2017-08-26T21:41:54.669Z,21.10
2017-08-26T21:44:22.111Z,21.10
2017-08-26T21:46:49.555Z,21.20
2017-08-26T21:49:17.003Z,21.30
2017-08-26T21:51:44.443Z,21.30
2017-08-26T21:54:11.897Z,21.40
2017-08-26T21:56:39.336Z,21.50
2017-08-26T21:59:06.802Z,21.60
2017-08-26T22:01:34.235Z,21.70
2017-08-26T22:04:01.680Z,21.80
2017-08-26T22:06:29.125Z,21.80
2017-08-26T22:08:56.564Z,21.70
2017-08-26T22:11:24.011Z,21.70
2017-08-26T22:13:51.443Z,21.70
2017-08-26T22:16:18.892Z,21.60
2017-08-26T22:18:46.331Z,21.70
2017-08-26T22:21:13.785Z,21.60
2017-08-26T22:23:41.211Z,21.60
2017-08-26T22:26:08.654Z,21.60
2017-08-26T22:28:36.092Z,21.50
2017-08-26T22:31:03.538Z,21.60
2017-08-26T22:33:30.978Z,21.50
2017-08-26T22:35:58.424Z,21.50
2017-08-26T22:38:25.903Z,21.40
2017-08-26T22:40:53.575Z,21.40
2017-08-26T22:43:21.082Z,21.30
2017-08-26T22:45:48.555Z,21.30
2017-08-26T22:48:16.047Z,21.20
2017-08-26T22:50:43.504Z,21.20
2017-08-26T22:53:10.967Z,21.10
2017-08-26T22:55:38.467Z,21.10
2017-08-26T22:58:06.028Z,21.00
2017-08-26T23:00:33.524Z,21.00
2017-08-26T23:03:01.197Z,21.00
2017-08-26T23:05:28.830Z,20.90
2017-08-26T23:07:56.440Z,20.90
2017-08-26T23:10:23.942Z,20.70
2017-08-26T23:12:51.519Z,20.60
2017-08-26T23:15:19.032Z,20.60
2017-08-26T23:17:47.816Z,20.50
2017-08-26T23:20:15.288Z,20.50
2017-08-26T23:22:42.830Z,20.50
2017-08-26T23:25:10.462Z,20.50
2017-08-26T23:27:37.944Z,20.60
2017-08-26T23:30:05.449Z,20.60
2017-08-26T23:32:32.951Z,20.60
2017-08-26T23:35:00.475Z,20.60
2017-08-26T23:37:28.020Z,20.50
2017-08-26T23:39:55.533Z,20.50
2017-08-26T23:42:23.020Z,20.40
2017-08-26T23:44:50.520Z,20.40
2017-08-26T23:47:18.273Z,20.30
2017-08-26T23:49:45.784Z,20.20
2017-08-26T23:52:13.407Z,20.20
2017-08-26T23:54:41.051Z,20.20
2017-08-26T23:57:08.664Z,20.10
2017-08-26T23:59:36.269Z,20.10
